createdAt,value
2023-05-02T00:00:25.945Z,10.77
2023-05-02T00:05:29.002Z,10.40
2023-05-02T00:10:32.265Z,9.23
2023-05-02T00:15:36.687Z,9.23
2023-05-02T00:20:41.276Z,9.37
2023-05-02T00:25:46.615Z,9.73
2023-05-02T00:30:51.067Z,10.50
2023-05-02T00:35:54.302Z,10.17
2023-05-02T00:40:57.838Z,9.70
2023-05-02T00:46:02.305Z,9.50
2023-05-02T00:51:06.499Z,11.10
2023-05-02T00:56:09.875Z,11.30
2023-05-02T01:01:27.895Z,10.90
2023-05-02T01:06:41.207Z,12.97
2023-05-02T01:11:50.140Z,12.80
2023-05-02T01:16:56.704Z,15.07
2023-05-02T01:22:01.183Z,15.23
2023-05-02T01:27:25.919Z,12.07
2023-05-02T01:32:33.570Z,13.33
2023-05-02T01:37:39.261Z,12.53
2023-05-02T01:42:43.700Z,10.33
2023-05-02T01:47:48.872Z,7.90
2023-05-02T01:52:54.730Z,5.87
2023-05-02T01:57:58.783Z,5.33
2023-05-02T02:03:04.155Z,5.40
2023-05-02T02:08:07.249Z,6.33
2023-05-02T02:13:18.306Z,8.20
2023-05-02T02:18:25.275Z,9.37
2023-05-02T02:23:30.246Z,8.97
2023-05-02T02:28:35.326Z,8.30
2023-05-02T02:33:40.000Z,8.00
2023-05-02T02:38:48.886Z,6.67
2023-05-02T02:44:03.250Z,6.43
2023-05-02T02:49:19.906Z,8.03
2023-05-02T02:54:30.731Z,6.37
2023-05-02T02:59:36.475Z,5.93
2023-05-02T03:04:45.198Z,5.00
2023-05-02T03:09:49.823Z,4.57
2023-05-02T03:15:08.140Z,2.33
2023-05-02T03:20:14.109Z,3.00
2023-05-02T03:25:17.375Z,2.50
2023-05-02T03:30:23.641Z,2.17
2023-05-02T03:35:28.453Z,2.33
2023-05-02T03:40:31.450Z,2.00
2023-05-02T03:45:35.771Z,2.83
2023-05-02T03:50:40.215Z,2.30
2023-05-02T03:55:44.481Z,2.10
2023-05-02T04:00:54.739Z,1.90
2023-05-02T04:06:00.426Z,2.23
2023-05-02T04:11:04.126Z,2.10
2023-05-02T04:16:08.020Z,2.20
2023-05-02T04:21:13.811Z,2.00
2023-05-02T04:26:18.870Z,1.90
2023-05-02T04:31:34.535Z,2.10
2023-05-02T04:36:39.267Z,2.07
2023-05-02T04:41:44.449Z,1.80
2023-05-02T04:46:47.607Z,2.47
2023-05-02T04:51:52.741Z,2.40
2023-05-02T04:56:57.964Z,2.83
2023-05-02T05:02:01.450Z,2.10
2023-05-02T05:07:05.936Z,2.33
2023-05-02T05:12:09.178Z,3.17
2023-05-02T05:17:13.733Z,2.20
2023-05-02T05:22:18.430Z,2.37
2023-05-02T05:27:22.150Z,1.90
2023-05-02T05:32:26.029Z,1.93
2023-05-02T05:37:31.501Z,2.00
2023-05-02T05:42:36.562Z,1.83
2023-05-02T05:47:45.123Z,1.93
2023-05-02T05:52:50.596Z,2.00
2023-05-02T05:57:54.198Z,2.43
2023-05-02T06:02:57.728Z,2.47
2023-05-02T06:08:05.321Z,2.23
2023-05-02T06:13:08.734Z,2.63
2023-05-02T06:18:16.370Z,3.20
2023-05-02T06:23:21.164Z,2.67
2023-05-02T06:28:24.282Z,3.10
2023-05-02T06:33:27.316Z,3.47
2023-05-02T06:38:31.629Z,3.00
2023-05-02T06:43:34.973Z,3.00
2023-05-02T06:48:37.929Z,2.83
2023-05-02T06:53:42.717Z,2.40
2023-05-02T06:58:45.835Z,2.67
2023-05-02T07:03:48.891Z,2.30
2023-05-02T07:08:53.271Z,2.70
2023-05-02T07:13:56.276Z,2.50
2023-05-02T07:18:59.440Z,2.60
2023-05-02T07:24:04.009Z,1.90
2023-05-02T07:29:09.783Z,2.27
2023-05-02T07:34:12.885Z,2.63
2023-05-02T07:39:17.439Z,2.07
2023-05-02T07:44:20.631Z,1.43
2023-05-02T07:49:23.571Z,1.77
2023-05-02T07:54:28.037Z,1.70
2023-05-02T07:59:32.161Z,1.67
2023-05-02T08:04:35.840Z,1.80
2023-05-02T08:09:40.481Z,1.90
2023-05-02T08:14:43.432Z,2.80
2023-05-02T08:19:46.697Z,3.03
2023-05-02T08:24:51.260Z,2.03
2023-05-02T08:29:54.400Z,2.27
2023-05-02T08:34:58.004Z,1.73
2023-05-02T08:40:03.170Z,1.90
2023-05-02T08:45:09.679Z,1.93
2023-05-02T08:50:13.030Z,2.00
2023-05-02T08:55:17.916Z,2.30
2023-05-02T09:00:21.325Z,2.03
2023-05-02T09:05:26.419Z,1.53
2023-05-02T09:10:32.593Z,1.80
2023-05-02T09:15:35.759Z,1.43
2023-05-02T09:20:44.641Z,1.53
2023-05-02T09:25:49.456Z,2.00
2023-05-02T09:30:52.702Z,1.60
2023-05-02T09:35:56.628Z,1.40
2023-05-02T09:41:03.366Z,1.70
2023-05-02T09:46:08.428Z,1.67
2023-05-02T09:51:21.163Z,1.90
2023-05-02T09:56:26.183Z,1.48
2023-05-02T10:01:29.692Z,1.52
2023-05-02T10:06:34.294Z,2.13
2023-05-02T10:11:41.034Z,1.35
2023-05-02T10:16:55.111Z,1.58
2023-05-02T10:22:00.585Z,2.33
2023-05-02T10:27:06.129Z,1.60
2023-05-02T10:32:10.515Z,1.67
2023-05-02T10:37:13.992Z,1.60
2023-05-02T10:42:21.215Z,1.48
2023-05-02T10:47:25.389Z,1.77
2023-05-02T10:52:30.437Z,1.97
2023-05-02T10:57:35.001Z,1.70
2023-05-02T11:02:52.958Z,1.65
2023-05-02T11:08:29.473Z,1.88
2023-05-02T11:13:51.828Z,1.75
2023-05-02T11:19:01.867Z,2.10
2023-05-02T11:24:41.716Z,1.60
2023-05-02T11:29:55.600Z,1.90
2023-05-02T11:34:59.076Z,1.80
2023-05-02T11:40:12.131Z,1.60
2023-05-02T11:45:17.030Z,2.08
2023-05-02T11:50:20.105Z,1.77
2023-05-02T11:55:23.502Z,2.30
2023-05-02T12:00:29.831Z,2.15
2023-05-02T12:05:33.492Z,2.55
2023-05-02T12:10:39.947Z,2.00
2023-05-02T12:15:44.863Z,2.70
2023-05-02T12:20:48.624Z,2.30
2023-05-02T12:25:51.671Z,2.65
2023-05-02T12:30:56.638Z,2.15
2023-05-02T12:36:08.149Z,2.58
2023-05-02T12:41:11.707Z,2.33
2023-05-02T12:46:17.411Z,3.00
2023-05-02T12:51:24.834Z,2.75
2023-05-02T12:56:32.534Z,2.65
2023-05-02T13:01:37.453Z,2.72
2023-05-02T13:06:40.936Z,3.00
2023-05-02T13:11:44.008Z,3.00
2023-05-02T13:16:50.577Z,2.63
2023-05-02T13:21:53.673Z,2.65
2023-05-02T13:26:56.572Z,3.38
2023-05-02T13:32:01.042Z,2.63
2023-05-02T13:37:04.354Z,2.60
2023-05-02T13:42:08.079Z,2.90
2023-05-02T13:47:12.641Z,3.17
2023-05-02T13:52:15.741Z,2.60
2023-05-02T13:57:18.732Z,3.90
2023-05-02T14:02:23.720Z,3.08
2023-05-02T14:07:26.858Z,3.28
2023-05-02T14:12:29.868Z,3.20
2023-05-02T14:17:34.439Z,3.80
2023-05-02T14:22:37.452Z,4.25
2023-05-02T14:27:40.516Z,3.45
2023-05-02T14:32:44.942Z,3.17
2023-05-02T14:37:48.449Z,3.47
2023-05-02T14:42:51.992Z,3.83
2023-05-02T14:47:57.885Z,3.40
2023-05-02T14:53:00.886Z,3.20
2023-05-02T14:58:03.821Z,3.35
2023-05-02T15:03:09.920Z,3.92
2023-05-02T15:08:13.151Z,3.60
2023-05-02T15:13:16.339Z,3.00
2023-05-02T15:18:21.587Z,4.00
2023-05-02T15:23:24.963Z,3.42
2023-05-02T15:28:28.014Z,3.50
2023-05-02T15:33:32.499Z,4.15
2023-05-02T15:38:39.681Z,3.97
2023-05-02T15:43:42.728Z,3.50
2023-05-02T15:48:47.151Z,3.90
2023-05-02T15:53:52.467Z,3.65
2023-05-02T15:58:55.688Z,3.53
2023-05-02T16:04:00.307Z,3.72
2023-05-02T16:09:03.873Z,3.90
2023-05-02T16:14:07.188Z,3.63
2023-05-02T16:19:13.453Z,3.67
2023-05-02T16:24:16.603Z,3.50
2023-05-02T16:29:19.554Z,3.83
2023-05-02T16:34:23.929Z,3.10
2023-05-02T16:39:27.547Z,3.25
2023-05-02T16:44:31.416Z,3.10
2023-05-02T16:49:36.025Z,3.22
2023-05-02T16:54:39.050Z,2.70
2023-05-02T16:59:42.169Z,3.10
2023-05-02T17:04:46.657Z,3.25
2023-05-02T17:09:54.581Z,3.72
2023-05-02T17:14:57.968Z,3.55
2023-05-02T17:20:02.729Z,2.63
2023-05-02T17:25:06.486Z,3.08
2023-05-02T17:30:10.864Z,2.72
2023-05-02T17:35:16.385Z,2.50
2023-05-02T17:40:20.324Z,2.40
2023-05-02T17:45:23.352Z,2.30
2023-05-02T17:50:30.073Z,2.50
2023-05-02T17:55:33.228Z,2.23
2023-05-02T18:00:36.461Z,2.07
2023-05-02T18:05:44.131Z,2.00
2023-05-02T18:10:47.773Z,1.97
2023-05-02T18:15:56.777Z,1.40
2023-05-02T18:21:01.761Z,1.50
2023-05-02T18:26:05.068Z,1.60
2023-05-02T18:31:08.167Z,1.70
2023-05-02T18:36:12.602Z,1.50
2023-05-02T18:41:16.253Z,1.70
2023-05-02T18:46:19.269Z,2.03
2023-05-02T18:51:23.806Z,1.10
2023-05-02T18:56:26.793Z,1.93
2023-05-02T19:01:30.170Z,1.50
2023-05-02T19:06:34.612Z,1.70
2023-05-02T19:11:37.801Z,1.73
2023-05-02T19:16:41.153Z,1.90
2023-05-02T19:21:48.400Z,1.80
2023-05-02T19:26:51.507Z,1.77
2023-05-02T19:31:54.531Z,2.90
2023-05-02T19:36:59.512Z,2.00
2023-05-02T19:42:03.288Z,1.70
2023-05-02T19:47:06.646Z,2.03
2023-05-02T19:52:11.158Z,1.63
2023-05-02T19:57:14.417Z,2.00
2023-05-02T20:02:17.898Z,2.07
2023-05-02T20:07:22.356Z,1.80
2023-05-02T20:12:25.491Z,1.90
2023-05-02T20:17:29.338Z,1.60
2023-05-02T20:22:34.728Z,1.57
2023-05-02T20:27:38.083Z,1.40
2023-05-02T20:32:41.192Z,1.47
2023-05-02T20:37:52.247Z,1.30
2023-05-02T20:42:56.895Z,1.63
2023-05-02T20:48:00.328Z,1.43
2023-05-02T20:53:05.573Z,1.70
2023-05-02T20:58:08.668Z,1.30
2023-05-02T21:03:11.729Z,1.33
2023-05-02T21:08:16.305Z,1.47
2023-05-02T21:13:19.459Z,1.33
2023-05-02T21:18:22.784Z,1.57
2023-05-02T21:23:27.244Z,1.13
2023-05-02T21:28:30.375Z,2.10
2023-05-02T21:33:33.346Z,1.90
2023-05-02T21:38:37.808Z,1.70
2023-05-02T21:43:41.497Z,1.60
2023-05-02T21:48:44.549Z,1.13
2023-05-02T21:53:49.762Z,1.67
2023-05-02T21:58:52.911Z,1.90
2023-05-02T22:03:55.924Z,1.43
2023-05-02T22:09:00.374Z,1.70
2023-05-02T22:14:03.457Z,1.60
2023-05-02T22:19:06.470Z,2.00
2023-05-02T22:24:11.219Z,2.00
2023-05-02T22:29:14.240Z,1.50
2023-05-02T22:34:17.540Z,2.07
2023-05-02T22:39:21.945Z,2.17
2023-05-02T22:44:24.981Z,1.60
2023-05-02T22:49:28.821Z,1.70
2023-05-02T22:54:33.269Z,1.50
2023-05-02T22:59:36.660Z,1.80
2023-05-02T23:04:39.733Z,2.10
2023-05-02T23:09:44.171Z,1.80
2023-05-02T23:14:47.283Z,1.90
2023-05-02T23:19:50.652Z,1.63
2023-05-02T23:24:55.103Z,1.80
2023-05-02T23:29:58.140Z,1.87
2023-05-02T23:35:01.948Z,1.90
2023-05-02T23:40:09.238Z,2.37
2023-05-02T23:45:13.374Z,2.30
2023-05-02T23:50:16.695Z,2.40
2023-05-02T23:55:21.133Z,2.30
